TimeCDT,TemperatureF,Dew PointF,Humidity,Sea Level PressureIn,VisibilityMPH,Wind Direction,Wind SpeedMPH,Gust SpeedMPH,PrecipitationIn,Events,Conditions,WindDirDegrees,DateUTC
12:15 AM,25.0,18.1,75,29.97,10.0,East,5.8,-,N/A,,Clear,80,2013-03-18 05:15:00
12:35 AM,25.3,18.5,75,29.96,10.0,East,5.8,-,N/A,,Clear,90,2013-03-18 05:35:00
12:55 AM,25.5,18.9,76,29.95,10.0,East,5.8,-,N/A,,Clear,100,2013-03-18 05:55:00
1:15 AM,25.2,19.0,78,29.95,10.0,ESE,4.6,-,N/A,,Clear,110,2013-03-18 06:15:00
1:35 AM,24.8,19.4,80,29.93,10.0,East,4.6,-,N/A,,Clear,100,2013-03-18 06:35:00
1:55 AM,24.6,19.4,81,29.92,10.0,East,5.8,-,N/A,,Clear,80,2013-03-18 06:55:00
2:15 AM,24.8,19.8,81,29.90,10.0,ENE,8.1,-,N/A,,Clear,70,2013-03-18 07:15:00
2:35 AM,24.1,19.4,82,29.90,10.0,ENE,3.5,-,N/A,,Clear,70,2013-03-18 07:35:00
2:55 AM,23.5,19.0,83,29.90,10.0,NE,5.8,-,N/A,,Clear,40,2013-03-18 07:55:00
3:15 AM,23.4,19.9,87,29.88,10.0,ENE,3.5,-,N/A,,Clear,70,2013-03-18 08:15:00
3:35 AM,23.0,19.2,85,29.87,10.0,East,4.6,-,N/A,,Clear,80,2013-03-18 08:35:00
3:55 AM,22.8,19.4,87,29.86,10.0,ENE,4.6,-,N/A,,Clear,60,2013-03-18 08:55:00
4:15 AM,21.9,18.7,87,29.86,10.0,Calm,Calm,-,N/A,,Scattered Clouds,0,2013-03-18 09:15:00
4:35 AM,24.1,21.4,89,29.84,10.0,East,5.8,-,N/A,,Mostly Cloudy,80,2013-03-18 09:35:00
4:55 AM,25.3,21.2,84,29.83,10.0,ENE,3.5,-,N/A,,Overcast,70,2013-03-18 09:55:00
5:15 AM,25.5,21.4,84,29.83,10.0,Calm,Calm,-,N/A,,Overcast,0,2013-03-18 10:15:00
5:35 AM,26.4,22.1,84,29.81,10.0,East,5.8,-,N/A,,Overcast,90,2013-03-18 10:35:00
6:15 AM,28.8,23.5,81,29.79,10.0,ESE,11.5,-,N/A,,Overcast,110,2013-03-18 11:15:00
6:35 AM,29.1,23.7,80,29.80,10.0,ESE,8.1,-,N/A,,Overcast,120,2013-03-18 11:35:00
6:55 AM,29.3,23.9,80,29.79,10.0,ESE,6.9,-,N/A,,Overcast,110,2013-03-18 11:55:00
7:15 AM,29.3,24.1,81,29.78,10.0,ESE,8.1,-,N/A,,Overcast,110,2013-03-18 12:15:00
7:55 AM,29.8,24.4,80,29.76,10.0,East,6.9,-,N/A,,Overcast,100,2013-03-18 12:55:00
8:15 AM,30.0,24.8,81,29.74,7.0,East,6.9,-,N/A,,Overcast,100,2013-03-18 13:15:00
8:35 AM,30.0,25.3,83,29.73,4.0,East,8.1,-,N/A,,Overcast,100,2013-03-18 13:35:00
8:55 AM,30.2,25.9,84,29.72,2.0,East,6.9,-,N/A,,Overcast,90,2013-03-18 13:55:00
9:15 AM,30.2,26.8,87,29.71,1.5,East,5.8,-,N/A,,Overcast,100,2013-03-18 14:15:00
9:35 AM,30.4,27.1,88,29.70,1.8,East,8.1,-,N/A,,Overcast,100,2013-03-18 14:35:00
9:55 AM,30.4,27.7,90,29.70,0.8,ESE,6.9,-,N/A,,Overcast,110,2013-03-18 14:55:00
10:15 AM,30.6,28.8,93,29.69,0.5,SE,6.9,-,0.01,,Overcast,130,2013-03-18 15:15:00
10:35 AM,30.9,29.1,93,29.69,0.5,ESE,5.8,-,0.02,,Overcast,120,2013-03-18 15:35:00
10:55 AM,31.5,29.1,91,29.68,0.5,SE,6.9,-,0.03,,Overcast,130,2013-03-18 15:55:00
11:15 AM,32.0,29.3,90,29.67,0.5,SE,5.8,-,0.01,,Overcast,130,2013-03-18 16:15:00
11:35 AM,32.0,27.5,83,29.66,1.2,SE,9.2,-,0.01,,Overcast,140,2013-03-18 16:35:00
11:55 AM,32.0,27.3,83,29.65,2.0,SE,5.8,-,0.01,,Overcast,140,2013-03-18 16:55:00
12:15 PM,32.0,28.0,85,29.65,1.2,South,4.6,-,N/A,,Overcast,180,2013-03-18 17:15:00
12:35 PM,32.4,28.6,86,29.65,0.8,South,4.6,-,N/A,,Overcast,190,2013-03-18 17:35:00
12:55 PM,32.0,29.1,89,29.64,0.5,South,4.6,-,N/A,,Overcast,190,2013-03-18 17:55:00
1:15 PM,32.0,29.7,91,29.62,0.8,South,3.5,-,0.01,,Overcast,180,2013-03-18 18:15:00
1:35 PM,32.2,30.4,93,29.61,0.5,South,3.5,-,0.01,,Overcast,190,2013-03-18 18:35:00
1:55 PM,32.2,29.1,88,29.60,0.5,SSW,4.6,-,0.01,,Overcast,200,2013-03-18 18:55:00
2:15 PM,33.6,29.7,85,29.58,1.0,South,6.9,-,N/A,,Overcast,190,2013-03-18 19:15:00
2:35 PM,34.0,28.4,80,29.58,5.0,SSW,8.1,-,N/A,,Overcast,210,2013-03-18 19:35:00
2:55 PM,34.0,28.2,79,29.57,10.0,WSW,5.8,-,N/A,,Overcast,240,2013-03-18 19:55:00
3:15 PM,34.0,28.4,80,29.57,3.0,WSW,10.4,-,N/A,,Overcast,240,2013-03-18 20:15:00
3:35 PM,34.0,29.5,84,29.57,1.2,WSW,6.9,-,N/A,,Overcast,250,2013-03-18 20:35:00
3:55 PM,34.3,28.9,81,29.57,3.0,WSW,9.2,-,N/A,,Overcast,240,2013-03-18 20:55:00
4:15 PM,34.0,28.9,82,29.57,10.0,WSW,9.2,17.3,N/A,,Overcast,250,2013-03-18 21:15:00
4:35 PM,33.8,29.3,84,29.57,7.0,WSW,11.5,19.6,N/A,,Overcast,250,2013-03-18 21:35:00
4:55 PM,33.8,29.7,85,29.57,5.0,West,12.7,-,N/A,,Overcast,260,2013-03-18 21:55:00
5:15 PM,33.4,29.8,87,29.57,3.0,WSW,17.3,24.2,N/A,,Overcast,250,2013-03-18 22:15:00
5:35 PM,31.3,27.1,85,29.58,3.0,West,21.9,28.8,N/A,,Overcast,280,2013-03-18 22:35:00
5:55 PM,29.5,24.8,83,29.59,7.0,West,25.3,29.9,N/A,,Overcast,260,2013-03-18 22:55:00
6:15 PM,27.1,21.7,80,29.60,5.0,West,27.6,35.7,N/A,,Overcast,270,2013-03-18 23:15:00
6:35 PM,25.9,19.0,75,29.62,5.0,West,23.0,32.2,N/A,,Overcast,280,2013-03-18 23:35:00
6:55 PM,25.5,18.0,73,29.63,7.0,West,21.9,31.1,N/A,,Overcast,280,2013-03-18 23:55:00
7:15 PM,24.8,16.7,71,29.64,7.0,WNW,24.2,29.9,N/A,,Overcast,290,2013-03-19 00:15:00
7:35 PM,23.5,14.4,68,29.65,7.0,West,23.0,32.2,N/A,,Overcast,270,2013-03-19 00:35:00
7:55 PM,22.5,13.3,68,29.66,7.0,West,23.0,28.8,N/A,,Overcast,270,2013-03-19 00:55:00
8:15 PM,21.6,12.0,67,29.67,7.0,West,27.6,33.4,N/A,,Mostly Cloudy,280,2013-03-19 01:15:00
8:35 PM,20.8,11.1,66,29.69,7.0,West,23.0,33.4,N/A,,Mostly Cloudy,280,2013-03-19 01:35:00
8:55 PM,20.3,11.3,68,29.70,10.0,West,16.1,25.3,N/A,,Scattered Clouds,280,2013-03-19 01:55:00
9:15 PM,20.5,11.3,68,29.69,10.0,West,26.5,33.4,N/A,,Mostly Cloudy,280,2013-03-19 02:15:00
9:35 PM,20.1,9.7,64,29.70,7.0,West,21.9,33.4,N/A,,Scattered Clouds,270,2013-03-19 02:35:00
9:55 PM,19.9,10.6,67,29.71,10.0,West,15.0,21.9,N/A,,Mostly Cloudy,270,2013-03-19 02:55:00
10:15 PM,20.3,11.8,70,29.71,10.0,West,15.0,-,N/A,,Overcast,270,2013-03-19 03:15:00
10:55 PM,19.8,10.4,67,29.72,10.0,West,15.0,27.6,N/A,,Overcast,270,2013-03-19 03:55:00
11:15 PM,19.2,10.8,70,29.72,10.0,West,16.1,-,N/A,,Overcast,270,2013-03-19 04:15:00
11:35 PM,18.9,10.9,71,29.73,7.0,West,20.7,26.5,N/A,,Overcast,280,2013-03-19 04:35:00
11:55 PM,18.3,10.0,70,29.72,7.0,West,21.9,29.9,N/A,,Overcast,280,2013-03-19 04:55:00